Time;durP1;ratioP1;P1;durP2;ratioP2;P2;SDS_P1;SDS_P2;PMS_P1;PMS_P2;Temp;Humidity;BMP_temperature;BMP_pressure;BME280_temperature;BME280_humidity;BME280_pressure;Samples;Min_cycle;Max_cycle;Signal;HPM_P1;HPM_P2
2022/03/11 00:02:23;;;;;;;29.07;13.40;;;;;;;1.81;100.00;102169.59;7396548;19;20394;-47
2022/03/11 00:04:53;;;;;;;18.27;8.50;;;;;;;1.81;100.00;102179.78;7393687;19;20462;-48
2022/03/11 00:07:25;;;;;;;16.57;8.40;;;;;;;1.72;100.00;102174.66;7399841;19;20417;-50
2022/03/11 00:09:55;;;;;;;26.20;11.97;;;;;;;1.70;100.00;102164.31;7395728;19;20415;-48
2022/03/11 00:12:24;;;;;;;17.90;8.82;;;;;;;1.65;100.00;102168.09;7396183;19;20926;-49
2022/03/11 00:14:54;;;;;;;14.55;8.07;;;;;;;1.59;100.00;102170.00;7394494;19;20194;-48
2022/03/11 00:17:23;;;;;;;18.07;9.03;;;;;;;1.61;100.00;102171.06;7396860;19;20127;-48
2022/03/11 00:19:56;;;;;;;16.20;8.77;;;;;;;1.59;100.00;102162.38;7395596;19;20405;-47
2022/03/11 00:22:28;;;;;;;14.70;8.10;;;;;;;1.55;100.00;102165.34;7393345;19;20392;-58
2022/03/11 00:24:58;;;;;;;18.70;9.30;;;;;;;1.64;100.00;102160.28;7395123;19;20159;-48
2022/03/11 00:27:27;;;;;;;18.07;9.00;;;;;;;1.79;100.00;102171.09;7393409;19;20394;-47
2022/03/11 00:29:57;;;;;;;20.17;8.90;;;;;;;1.66;100.00;102164.78;7395987;19;20384;-47
2022/03/11 00:32:26;;;;;;;14.33;8.03;;;;;;;1.56;100.00;102162.06;7391786;19;20404;-51
2022/03/11 00:34:56;;;;;;;17.20;8.80;;;;;;;1.52;100.00;102167.56;7394587;19;20753;-52
2022/03/11 00:37:28;;;;;;;18.70;9.00;;;;;;;1.58;100.00;102168.19;7392763;19;20398;-57
2022/03/11 00:39:57;;;;;;;16.40;8.13;;;;;;;1.55;100.00;102171.34;7394769;19;20388;-51
2022/03/11 00:42:27;;;;;;;22.02;9.80;;;;;;;1.45;100.00;102169.47;7392217;19;20394;-48
2022/03/11 00:44:56;;;;;;;14.30;7.55;;;;;;;1.40;100.00;102169.78;7398408;19;20169;-49
2022/03/11 00:47:26;;;;;;;17.40;8.95;;;;;;;1.48;100.00;102174.00;7395870;19;20129;-51
2022/03/11 00:49:56;;;;;;;16.27;8.50;;;;;;;1.47;100.00;102173.09;7395237;19;20127;-47
2022/03/11 00:52:28;;;;;;;15.85;7.70;;;;;;;1.45;100.00;102173.69;7393334;19;20469;-56
2022/03/11 00:54:57;;;;;;;14.50;7.13;;;;;;;1.45;100.00;102176.25;7398314;19;20163;-47
2022/03/11 00:57:27;;;;;;;29.80;14.10;;;;;;;2.43;100.00;102176.53;7398003;19;20474;-50
2022/03/11 00:59:56;;;;;;;103.27;34.73;;;;;;;2.31;100.00;102174.47;7395868;19;20673;-49
2022/03/11 01:02:26;;;;;;;18.50;8.63;;;;;;;1.89;100.00;102173.81;7394623;19;20385;-52
2022/03/11 01:04:55;;;;;;;22.35;8.40;;;;;;;2.04;100.00;102163.38;7394754;19;20428;-46
2022/03/11 01:07:27;;;;;;;23.33;10.23;;;;;;;2.27;100.00;102160.53;7397086;19;20575;-50
2022/03/11 01:09:57;;;;;;;23.17;10.40;;;;;;;2.38;100.00;102165.03;7395824;19;20752;-49
2022/03/11 01:12:26;;;;;;;19.17;8.97;;;;;;;1.79;100.00;102161.81;7393429;19;20384;-51
2022/03/11 01:14:56;;;;;;;14.20;6.90;;;;;;;1.28;100.00;102169.44;7394875;19;20411;-48
2022/03/11 01:17:25;;;;;;;14.23;7.40;;;;;;;1.35;100.00;102162.56;7390360;19;20399;-59
2022/03/11 01:19:55;;;;;;;19.00;7.15;;;;;;;1.28;100.00;102157.59;7395481;19;20753;-51
2022/03/11 01:22:27;;;;;;;15.13;8.07;;;;;;;1.16;100.00;102156.34;7396137;19;20650;-51
2022/03/11 01:24:57;;;;;;;14.10;6.93;;;;;;;1.19;100.00;102157.56;7394471;19;20198;-46
2022/03/11 01:27:26;;;;;;;14.02;6.13;;;;;;;1.08;100.00;102151.38;7392901;19;20387;-47
2022/03/11 01:29:56;;;;;;;17.05;7.30;;;;;;;1.09;100.00;102157.38;7395638;19;20123;-48
2022/03/11 01:32:25;;;;;;;13.13;6.47;;;;;;;0.99;100.00;102147.91;7393168;19;20143;-53
2022/03/11 01:34:55;;;;;;;13.57;6.57;;;;;;;0.94;100.00;102147.41;7394250;19;20166;-47
2022/03/11 01:37:24;;;;;;;19.20;8.20;;;;;;;1.08;100.00;102158.13;7393997;19;20143;-46
2022/03/11 01:39:56;;;;;;;15.43;6.90;;;;;;;1.15;100.00;102147.84;7394701;19;20415;-48
2022/03/11 01:42:25;;;;;;;18.30;7.25;;;;;;;1.12;100.00;102152.59;7392713;19;20135;-53
2022/03/11 01:44:55;;;;;;;15.95;7.47;;;;;;;1.03;100.00;102149.13;7393830;19;20686;-48
2022/03/11 01:47:25;;;;;;;18.05;8.18;;;;;;;0.91;100.00;102131.88;7395456;19;20127;-48
2022/03/11 01:49:54;;;;;;;15.20;7.60;;;;;;;0.84;100.00;102133.63;7394593;19;20182;-47
2022/03/11 01:52:24;;;;;;;16.30;6.70;;;;;;;0.91;100.00;102131.88;7392886;19;20207;-48
2022/03/11 01:54:56;;;;;;;13.25;7.00;;;;;;;0.98;100.00;102127.41;7393072;19;20203;-46
2022/03/11 01:57:26;;;;;;;15.30;7.30;;;;;;;0.93;100.00;102130.38;7390386;19;20162;-53
2022/03/11 01:59:55;;;;;;;14.40;6.82;;;;;;;0.84;100.00;102124.34;7394227;19;20123;-47
2022/03/11 02:02:25;;;;;;;13.48;6.13;;;;;;;0.66;100.00;102123.34;7396857;19;20129;-49
2022/03/11 02:04:54;;;;;;;17.60;7.00;;;;;;;0.58;100.00;102121.66;7392824;19;20555;-49
2022/03/11 02:07:24;;;;;;;14.80;6.90;;;;;;;0.61;100.00;102115.25;7394951;19;20150;-49
2022/03/11 02:09:56;;;;;;;16.50;6.60;;;;;;;0.50;100.00;102118.31;7393840;19;20200;-48
2022/03/11 02:12:30;;;;;;;12.88;6.60;;;;;;;0.48;100.00;102122.34;7391609;19;20123;-48
2022/03/11 02:14:59;;;;;;;16.77;7.43;;;;;;;0.41;100.00;102120.78;7392792;19;20618;-48
2022/03/11 02:17:29;;;;;;;18.98;7.55;;;;;;;0.46;100.00;102116.22;7387751;19;20545;-47
2022/03/11 02:19:59;;;;;;;16.33;6.65;;;;;;;0.56;100.00;102108.78;7393405;19;20640;-49
2022/03/11 02:22:29;;;;;;;15.15;6.93;;;;;;;0.57;100.00;102112.25;7390266;19;20477;-48
2022/03/11 02:25:01;;;;;;;20.67;6.95;;;;;;;0.43;100.00;102114.25;7392492;19;20159;-49
2022/03/11 02:27:30;;;;;;;15.38;7.03;;;;;;;0.55;100.00;102114.59;7390945;19;20131;-49
2022/03/11 02:30:00;;;;;;;15.73;6.93;;;;;;;0.35;100.00;102102.34;7392802;19;20190;-47
2022/03/11 02:32:29;;;;;;;18.73;7.28;;;;;;;0.38;100.00;102110.31;7389639;19;20127;-47
2022/03/11 02:34:59;;;;;;;14.63;7.18;;;;;;;0.55;100.00;102107.00;7393194;19;20543;-49
2022/03/11 02:37:28;;;;;;;15.57;6.97;;;;;;;0.25;100.00;102111.56;7388325;19;20137;-52
2022/03/11 02:40:00;;;;;;;15.10;7.30;;;;;;;0.34;100.00;102111.63;7392888;19;20127;-49
2022/03/11 02:42:29;;;;;;;17.55;6.70;;;;;;;0.29;100.00;102115.31;7391165;19;20127;-47
2022/03/11 02:45:00;;;;;;;18.40;7.47;;;;;;;0.30;100.00;102109.50;7395432;19;20166;-46
2022/03/11 02:47:30;;;;;;;14.43;6.93;;;;;;;0.16;100.00;102117.31;7389948;19;20127;-47
2022/03/11 02:50:00;;;;;;;17.55;6.60;;;;;;;0.17;100.00;102119.09;7392677;19;20145;-48
2022/03/11 02:52:30;;;;;;;15.60;7.32;;;;;;;0.19;100.00;102115.09;7383579;19;20167;-49
2022/03/11 02:55:02;;;;;;;18.08;6.93;;;;;;;0.16;100.00;102117.31;7391830;19;20250;-49
2022/03/11 02:57:31;;;;;;;14.45;7.60;;;;;;;0.35;100.00;102117.59;7389537;19;20206;-47
2022/03/11 03:00:01;;;;;;;17.65;7.22;;;;;;;0.27;100.00;102116.81;7392204;19;20199;-49
2022/03/11 03:02:30;;;;;;;16.98;7.47;;;;;;;0.23;100.00;102117.22;7389642;19;20127;-48
2022/03/11 03:05:01;;;;;;;14.38;6.75;;;;;;;0.18;100.00;102110.75;7394265;19;20163;-49
2022/03/11 03:07:31;;;;;;;19.05;8.30;;;;;;;0.20;100.00;102114.38;7389475;19;20138;-47
2022/03/11 03:10:03;;;;;;;15.82;7.80;;;;;;;0.04;100.00;102110.19;7392517;19;20128;-48
2022/03/11 03:12:32;;;;;;;14.88;7.03;;;;;;;0.04;100.00;102107.66;7390184;19;20215;-50
2022/03/11 03:15:02;;;;;;;17.30;7.45;;;;;;;0.01;100.00;102109.88;7391054;19;20154;-46
2022/03/11 03:17:31;;;;;;;15.02;6.85;;;;;;;0.13;100.00;102108.66;7388665;19;20130;-48
2022/03/11 03:20:02;;;;;;;15.98;7.38;;;;;;;-0.06;100.00;102117.59;7391821;19;20150;-47
2022/03/11 03:22:31;;;;;;;15.20;6.65;;;;;;;-0.08;100.00;102106.34;7385698;19;20194;-47
2022/03/11 03:25:03;;;;;;;17.48;7.80;;;;;;;0.07;100.00;102113.06;7390654;19;20622;-48
2022/03/11 03:27:33;;;;;;;20.85;8.13;;;;;;;-0.02;100.00;102107.00;7387582;19;20127;-48
2022/03/11 03:30:02;;;;;;;17.30;7.60;;;;;;;-0.06;100.00;102104.91;7391439;19;20133;-51
2022/03/11 03:32:32;;;;;;;15.50;6.90;;;;;;;-0.02;100.00;102099.41;7389055;19;20124;-49
2022/03/11 03:35:01;;;;;;;15.88;7.25;;;;;;;-0.17;100.00;102102.13;7390372;19;20155;-49
2022/03/11 03:37:31;;;;;;;17.50;7.30;;;;;;;-0.20;100.00;102096.69;7386812;19;20187;-48
2022/03/11 03:40:03;;;;;;;16.30;6.50;;;;;;;-0.25;100.00;102102.94;7391390;19;20123;-48
2022/03/11 03:42:33;;;;;;;19.92;8.43;;;;;;;-0.19;100.00;102107.75;7389335;19;20201;-48
2022/03/11 03:45:03;;;;;;;18.45;7.60;;;;;;;-0.33;100.00;102102.09;7390227;19;20210;-48
2022/03/11 03:47:32;;;;;;;16.63;7.57;;;;;;;-0.38;100.00;102104.88;7388909;19;20126;-47
2022/03/11 03:50:02;;;;;;;15.20;7.32;;;;;;;-0.40;100.00;102094.59;7391005;19;20119;-51
2022/03/11 03:52:33;;;;;;;17.60;7.82;;;;;;;-0.30;100.00;102099.00;7388818;19;20211;-47
2022/03/11 03:55:06;;;;;;;19.17;7.75;;;;;;;-0.33;100.00;102093.59;7389828;19;20218;-47
2022/03/11 03:57:35;;;;;;;16.10;7.30;;;;;;;-0.31;100.00;102094.66;7386526;19;20129;-47
2022/03/11 04:00:06;;;;;;;15.55;7.88;;;;;;;-0.42;100.00;102088.41;7390792;19;20137;-49
2022/03/11 04:02:36;;;;;;;18.50;7.28;;;;;;;-0.51;100.00;102093.41;7389394;19;20127;-50
2022/03/11 04:05:07;;;;;;;16.10;7.72;;;;;;;-0.35;100.00;102090.00;7389468;19;20173;-49
2022/03/11 04:07:37;;;;;;;15.25;7.10;;;;;;;-0.44;100.00;102089.91;7389179;19;20477;-48
2022/03/11 04:10:10;;;;;;;16.75;8.50;;;;;;;-0.55;100.00;102091.28;7390732;19;20124;-48
2022/03/11 04:12:40;;;;;;;17.88;8.18;;;;;;;-0.56;100.00;102079.34;7388329;19;20597;-47
2022/03/11 04:15:11;;;;;;;17.88;8.20;;;;;;;-0.37;100.00;102074.59;7389166;19;20689;-48
2022/03/11 04:17:41;;;;;;;22.42;8.50;;;;;;;-0.50;100.00;102074.94;7393774;19;20139;-49
2022/03/11 04:20:12;;;;;;;16.90;7.70;;;;;;;-0.58;100.00;102076.66;7397628;19;20138;-48
2022/03/11 04:22:42;;;;;;;16.42;7.40;;;;;;;-0.43;100.00;102072.31;7395132;19;20124;-50
2022/03/11 04:25:17;;;;;;;17.17;8.38;;;;;;;-0.50;100.00;102064.81;7395649;19;20234;-47
2022/03/11 04:27:46;;;;;;;18.83;8.45;;;;;;;-0.44;100.00;102065.47;7394865;19;20190;-49
2022/03/11 04:30:16;;;;;;;18.05;7.72;;;;;;;-0.46;100.00;102046.63;7397472;19;20123;-47
2022/03/11 04:32:45;;;;;;;18.95;7.85;;;;;;;-0.54;100.00;102055.06;7392266;19;20699;-51
2022/03/11 04:35:18;;;;;;;19.35;7.53;;;;;;;-0.63;100.00;102048.97;7396223;19;20165;-46
2022/03/11 04:37:47;;;;;;;16.70;7.97;;;;;;;-0.70;100.00;102055.03;7395441;19;20653;-48
2022/03/11 04:40:19;;;;;;;18.55;8.23;;;;;;;-0.71;100.00;102054.13;7396977;19;20123;-47
2022/03/11 04:42:49;;;;;;;17.23;7.38;;;;;;;-0.84;100.00;102040.84;7393845;19;20194;-53
2022/03/11 04:45:18;;;;;;;21.30;8.00;;;;;;;-0.94;100.00;102038.97;7395846;19;20310;-49
2022/03/11 04:47:48;;;;;;;18.92;8.68;;;;;;;-0.92;100.00;102036.59;7393219;19;20192;-53
2022/03/11 04:50:17;;;;;;;20.63;8.15;;;;;;;-0.99;100.00;102037.56;7397088;19;20127;-47
2022/03/11 04:52:47;;;;;;;17.02;8.18;;;;;;;-0.99;100.00;102046.06;7393263;19;20194;-48
2022/03/11 04:55:19;;;;;;;20.50;7.90;;;;;;;-0.93;100.00;102040.75;7395395;19;20165;-47
2022/03/11 04:57:48;;;;;;;16.05;7.35;;;;;;;-0.90;100.00;102047.78;7393700;19;20249;-47
2022/03/11 05:00:19;;;;;;;19.35;8.30;;;;;;;-0.92;100.00;102056.88;7396897;19;20123;-46
2022/03/11 05:02:48;;;;;;;18.00;8.00;;;;;;;-0.92;100.00;102051.81;7392659;19;20197;-47
2022/03/11 05:05:18;;;;;;;19.27;8.43;;;;;;;-0.90;100.00;102053.78;7394973;19;20173;-50
2022/03/11 05:07:48;;;;;;;18.92;8.32;;;;;;;-1.01;100.00;102052.63;7393638;19;20190;-49
2022/03/11 05:10:20;;;;;;;19.25;9.05;;;;;;;-0.96;100.00;102058.19;7396608;19;20137;-46
2022/03/11 05:12:50;;;;;;;20.98;8.77;;;;;;;-0.98;100.00;102055.47;7394670;19;20190;-50
2022/03/11 05:15:19;;;;;;;21.83;9.98;;;;;;;-1.04;100.00;102057.34;7394658;19;20163;-51
2022/03/11 05:17:49;;;;;;;18.50;7.60;;;;;;;-1.11;100.00;102059.94;7393224;19;20190;-53
2022/03/11 05:20:18;;;;;;;15.98;7.70;;;;;;;-1.11;100.00;102065.00;7396327;19;20182;-47
2022/03/11 05:22:48;;;;;;;18.13;7.30;;;;;;;-1.18;100.00;102052.41;7393184;19;20594;-50
2022/03/11 05:25:20;;;;;;;15.85;7.95;;;;;;;-1.20;100.00;102052.22;7394571;19;20165;-52
2022/03/11 05:27:49;;;;;;;24.13;7.35;;;;;;;-1.24;100.00;102053.50;7391998;19;20194;-52
2022/03/11 05:30:19;;;;;;;22.20;7.82;;;;;;;-1.24;100.00;102043.38;7396005;19;20127;-48
2022/03/11 05:32:49;;;;;;;15.80;7.68;;;;;;;-1.26;100.00;102042.31;7389754;19;20213;-51
2022/03/11 05:35:19;;;;;;;18.85;8.75;;;;;;;-1.21;100.00;102032.69;7394348;19;20162;-48
2022/03/11 05:37:48;;;;;;;12.77;6.30;;;;;;;-1.22;100.00;102041.91;7391315;19;20194;-47
2022/03/11 05:40:20;;;;;;;19.55;7.75;;;;;;;-1.25;100.00;102044.13;7395358;19;20478;-50
2022/03/11 05:42:50;;;;;;;21.23;7.85;;;;;;;-1.17;100.00;102049.13;7392445;19;20190;-51
2022/03/11 05:45:20;;;;;;;18.17;8.55;;;;;;;-1.27;100.00;102048.09;7394031;19;20629;-49
2022/03/11 05:47:49;;;;;;;18.08;7.93;;;;;;;-1.06;100.00;102043.59;7392280;19;20197;-50
2022/03/11 05:50:19;;;;;;;22.00;8.50;;;;;;;-1.22;100.00;102056.22;7395127;19;20123;-49
2022/03/11 05:52:50;;;;;;;19.25;8.80;;;;;;;-1.26;100.00;102049.94;7390683;19;20197;-48
2022/03/11 05:55:22;;;;;;;22.83;9.25;;;;;;;-1.18;100.00;102052.41;7396523;19;20163;-48
2022/03/11 05:57:51;;;;;;;21.45;8.93;;;;;;;-1.32;100.00;102045.81;7391954;19;20190;-48
2022/03/11 06:00:22;;;;;;;16.50;7.40;;;;;;;-1.39;100.00;102051.84;7395267;19;20127;-50
2022/03/11 06:02:51;;;;;;;18.63;6.85;;;;;;;-1.38;100.00;102049.44;7391522;19;20190;-46
2022/03/11 06:05:21;;;;;;;18.27;7.55;;;;;;;-1.31;100.00;102045.97;7393347;19;20182;-48
2022/03/11 06:07:50;;;;;;;17.90;6.72;;;;;;;-1.44;100.00;102058.03;7391131;19;20194;-50
2022/03/11 06:10:23;;;;;;;14.68;6.95;;;;;;;-1.39;100.00;102051.84;7394917;19;20123;-47
2022/03/11 06:12:52;;;;;;;20.27;7.25;;;;;;;-1.38;100.00;102049.44;7391037;19;20197;-46
2022/03/11 06:15:22;;;;;;;90.82;35.72;;;;;;;-0.48;100.00;102048.09;7392709;19;20527;-47
2022/03/11 06:17:51;;;;;;;23.52;10.05;;;;;;;-0.19;100.00;102054.47;7390793;19;20190;-46
2022/03/11 06:20:21;;;;;;;20.15;9.07;;;;;;;-0.69;100.00;102055.22;7392871;19;20150;-50
2022/03/11 06:22:52;;;;;;;26.48;11.65;;;;;;;-1.03;100.00;102063.31;7391171;19;20197;-51
2022/03/11 06:25:24;;;;;;;19.85;7.95;;;;;;;-1.12;100.00;102058.13;7392619;19;20162;-48
2022/03/11 06:27:53;;;;;;;18.25;9.27;;;;;;;-1.12;100.00;102058.13;7389955;19;20211;-46
2022/03/11 06:30:23;;;;;;;19.00;8.23;;;;;;;-1.11;100.00;102062.47;7394025;19;20141;-49
2022/03/11 06:32:53;;;;;;;38.97;17.55;;;;;;;-0.77;100.00;102057.66;7390362;19;20193;-46
2022/03/11 06:35:22;;;;;;;259.30;108.60;;;;;;;-0.17;100.00;102061.50;7393047;19;20166;-47
2022/03/11 06:37:54;;;;;;;22.83;8.65;;;;;;;-0.64;100.00;102062.38;7389870;19;20587;-51
2022/03/11 06:40:26;;;;;;;21.15;9.07;;;;;;;-0.88;100.00;102064.09;7391747;19;20143;-47
2022/03/11 06:42:55;;;;;;;21.10;7.90;;;;;;;-1.05;100.00;102068.22;7393216;19;20194;-50
2022/03/11 06:45:25;;;;;;;20.67;8.57;;;;;;;-1.02;100.00;102065.09;7391940;19;20159;-48
2022/03/11 06:47:55;;;;;;;24.80;10.30;;;;;;;-1.03;100.00;102060.78;7389705;19;20657;-49
2022/03/11 06:50:25;;;;;;;19.55;9.15;;;;;;;-1.04;100.00;102067.47;7393655;19;20197;-48
2022/03/11 06:52:54;;;;;;;23.02;9.73;;;;;;;-1.00;100.00;102054.41;7389709;19;20186;-48
2022/03/11 06:55:26;;;;;;;18.77;8.32;;;;;;;-0.93;100.00;102062.69;7391181;19;20158;-49
2022/03/11 06:57:56;;;;;;;20.05;9.23;;;;;;;-0.96;100.00;102059.06;7392191;19;20197;-49
2022/03/11 07:00:25;;;;;;;20.10;7.80;;;;;;;-1.02;100.00;102045.72;7394928;19;20127;-48
2022/03/11 07:02:55;;;;;;;16.60;8.00;;;;;;;-0.93;100.00;102061.03;7389222;19;20190;-48
2022/03/11 07:05:24;;;;;;;19.67;9.57;;;;;;;-0.91;100.00;102051.06;7395716;19;20170;-49
2022/03/11 07:07:54;;;;;;;16.83;8.23;;;;;;;-0.84;100.00;102058.59;7389593;19;20625;-47
2022/03/11 07:10:26;;;;;;;25.80;10.88;;;;;;;-0.80;100.00;102050.59;7392933;19;20123;-47
2022/03/11 07:12:58;;;;;;;19.77;8.02;;;;;;;-0.88;100.00;102051.41;7387007;19;20194;-48
2022/03/11 07:15:28;;;;;;;16.98;8.57;;;;;;;-0.79;100.00;102048.97;7391080;19;20158;-47
2022/03/11 07:17:57;;;;;;;16.60;7.55;;;;;;;-0.80;100.00;102042.09;7388504;19;20194;-49
2022/03/11 07:20:27;;;;;;;19.77;8.75;;;;;;;-0.76;100.00;102055.28;7390948;19;20658;-47
2022/03/11 07:23:17;;;;;;;26.83;11.38;;;;;;;-0.57;100.00;102044.56;7386762;19;20228;-48
2022/03/11 07:25:50;;;;;;;17.40;8.07;;;;;;;-0.61;99.88;102050.06;7390789;19;20162;-51
2022/03/11 07:28:20;;;;;;;22.15;8.80;;;;;;;-0.58;99.46;102055.44;7389608;19;20186;-50
2022/03/11 07:30:50;;;;;;;15.75;7.35;;;;;;;-0.55;99.20;102045.66;7392464;19;20132;-51
2022/03/11 07:33:19;;;;;;;20.15;7.43;;;;;;;-0.45;97.28;102037.38;7388411;19;20198;-48
2022/03/11 07:35:49;;;;;;;20.38;8.20;;;;;;;-0.41;98.27;102037.88;7390272;19;20159;-49
2022/03/11 07:38:18;;;;;;;17.05;7.30;;;;;;;-0.34;96.36;102039.44;7385342;19;20190;-46
2022/03/11 07:40:50;;;;;;;24.23;8.63;;;;;;;-0.30;95.80;102041.53;7390228;19;20134;-48
2022/03/11 07:43:20;;;;;;;21.38;8.60;;;;;;;-0.28;94.52;102036.63;7389438;19;20191;-50
2022/03/11 07:45:49;;;;;;;17.95;8.13;;;;;;;-0.26;94.07;102034.28;7392364;19;20246;-50
2022/03/11 07:48:19;;;;;;;23.23;8.00;;;;;;;-0.27;93.77;102038.44;7387504;19;20186;-48
2022/03/11 07:50:48;;;;;;;19.95;8.23;;;;;;;-0.28;93.84;102029.03;7397480;19;20139;-47
2022/03/11 07:53:17;;;;;;;15.57;6.50;;;;;;;-0.24;93.30;102038.78;7394599;19;20186;-48
2022/03/11 07:55:49;;;;;;;21.17;6.82;;;;;;;-0.20;92.21;102034.91;7398555;19;20570;-49
2022/03/11 07:58:21;;;;;;;19.77;8.27;;;;;;;-0.17;90.99;102022.53;7391100;19;20190;-46
2022/03/11 08:00:52;;;;;;;15.23;7.30;;;;;;;-0.02;89.91;102030.88;7396161;19;20502;-46
2022/03/11 08:03:22;;;;;;;19.42;7.43;;;;;;;0.06;89.30;102027.50;7394584;19;20551;-48
2022/03/11 08:05:52;;;;;;;21.65;9.88;;;;;;;0.30;88.26;102025.72;7398755;19;20594;-49
2022/03/11 08:08:21;;;;;;;20.75;8.93;;;;;;;0.41;86.19;102024.28;7395240;19;20186;-52
2022/03/11 08:10:54;;;;;;;20.98;7.88;;;;;;;0.36;84.48;102017.84;7398837;19;20159;-50
2022/03/11 08:13:37;;;;;;;26.17;11.18;;;;;;;0.45;81.39;102017.91;7394726;19;20246;-49
2022/03/11 08:16:07;;;;;;;22.15;9.52;;;;;;;0.36;78.84;102013.66;7397793;19;20157;-47
2022/03/11 08:18:37;;;;;;;17.20;7.70;;;;;;;0.35;78.52;102016.94;7390912;19;20563;-48
2022/03/11 08:21:08;;;;;;;15.98;6.95;;;;;;;0.43;79.38;102010.13;7399592;19;20210;-46
2022/03/11 08:23:39;;;;;;;16.90;6.82;;;;;;;0.54;79.12;102006.13;7394748;19;20194;-52
2022/03/11 08:26:12;;;;;;;16.52;7.22;;;;;;;0.63;76.10;101999.47;7397923;19;20127;-47
2022/03/11 08:28:46;;;;;;;18.77;8.13;;;;;;;0.72;75.47;102008.75;7394889;19;20194;-48
2022/03/11 08:31:36;;;;;;;19.65;7.93;;;;;;;0.75;74.68;102001.44;7395891;19;20127;-48
2022/03/11 08:34:10;;;;;;;21.90;8.07;;;;;;;0.80;72.87;102001.16;7393094;19;20544;-46
2022/03/11 08:36:40;;;;;;;25.30;8.98;;;;;;;0.89;74.52;101991.03;7397921;19;20127;-47
2022/03/11 08:39:10;;;;;;;14.82;6.68;;;;;;;0.90;73.03;102003.00;7394059;19;20187;-50
2022/03/11 08:41:42;;;;;;;12.85;5.53;;;;;;;0.90;70.62;102003.00;7398528;19;20139;-49
2022/03/11 08:44:12;;;;;;;24.20;8.43;;;;;;;1.05;73.22;101993.47;7393368;19;20266;-52
2022/03/11 08:46:41;;;;;;;18.88;7.40;;;;;;;1.08;69.90;101995.44;7401951;19;20139;-48
2022/03/11 08:49:11;;;;;;;18.30;6.32;;;;;;;1.05;68.48;101992.56;7391424;19;20207;-48
2022/03/11 08:51:42;;;;;;;19.42;8.38;;;;;;;1.12;70.07;101989.88;7396900;19;20154;-53
2022/03/11 08:54:11;;;;;;;19.02;8.02;;;;;;;1.13;66.83;101986.59;7392560;19;20208;-47
2022/03/11 08:56:43;;;;;;;19.63;7.00;;;;;;;1.16;66.68;101983.47;7395849;19;20127;-48
2022/03/11 08:59:13;;;;;;;20.85;7.70;;;;;;;1.40;69.10;101987.56;7392371;19;20250;-47
2022/03/11 09:01:43;;;;;;;16.85;7.03;;;;;;;1.58;66.52;101987.53;7393657;19;20614;-49
2022/03/11 09:04:12;;;;;;;19.43;8.27;;;;;;;1.42;65.45;101968.25;7392985;19;20192;-50
2022/03/11 09:06:42;;;;;;;15.03;6.27;;;;;;;1.57;64.68;101975.56;7399220;19;21034;-46
2022/03/11 09:09:11;;;;;;;12.55;6.53;;;;;;;1.68;63.89;101979.16;7391488;19;20423;-46
2022/03/11 09:11:44;;;;;;;28.77;11.20;;;;;;;1.90;68.07;101971.97;7396050;19;20128;-49
2022/03/11 09:14:14;;;;;;;19.93;8.20;;;;;;;2.01;64.81;101966.25;7389704;19;20202;-50
2022/03/11 09:16:43;;;;;;;21.97;8.00;;;;;;;1.98;63.15;101973.59;7396263;19;20548;-50
2022/03/11 09:19:13;;;;;;;15.30;7.60;;;;;;;1.87;62.68;101972.56;7387340;19;20423;-51
2022/03/11 09:21:43;;;;;;;51.47;16.17;;;;;;;1.91;62.92;101963.59;7393969;19;20735;-53
2022/03/11 09:24:12;;;;;;;14.70;6.87;;;;;;;1.98;62.31;101960.88;7392008;19;20591;-50
2022/03/11 09:26:47;;;;;;;18.37;9.00;;;;;;;2.11;61.67;101949.31;7396260;19;20378;-49
2022/03/11 09:29:23;;;;;;;16.50;6.50;;;;;;;2.17;59.62;101952.44;7392160;19;20442;-52
2022/03/11 09:31:53;;;;;;;24.00;8.57;;;;;;;2.27;60.29;101939.81;7395612;19;20371;-52
2022/03/11 09:34:22;;;;;;;17.63;6.90;;;;;;;2.31;58.86;101935.03;7390700;19;20462;-52
2022/03/11 09:36:52;;;;;;;16.10;6.77;;;;;;;2.55;58.40;101926.22;7395716;19;20415;-50
2022/03/11 09:39:22;;;;;;;31.93;12.33;;;;;;;2.45;56.16;101933.78;7391699;19;20415;-55
2022/03/11 09:41:54;;;;;;;21.10;7.80;;;;;;;2.54;55.76;101930.44;7393497;19;20380;-49
2022/03/11 09:44:24;;;;;;;14.70;6.50;;;;;;;2.66;55.21;101934.88;7390649;19;20386;-49
2022/03/11 09:46:54;;;;;;;15.17;6.87;;;;;;;2.72;53.96;101932.88;7395232;19;20444;-47
2022/03/11 09:49:23;;;;;;;19.53;7.33;;;;;;;2.76;53.10;101919.66;7388510;19;20469;-50
2022/03/11 09:51:53;;;;;;;16.33;6.23;;;;;;;2.91;52.64;101912.53;7394524;19;20402;-50
2022/03/11 09:54:22;;;;;;;22.70;10.20;;;;;;;3.13;53.83;101918.69;7388270;19;20657;-46
2022/03/11 09:56:56;;;;;;;13.93;6.83;;;;;;;3.17;52.83;101911.44;7394882;19;20378;-46
2022/03/11 09:59:26;;;;;;;15.37;7.50;;;;;;;3.47;53.84;101908.94;7391662;19;20407;-47
2022/03/11 10:02:17;;;;;;;16.20;7.20;;;;;;;3.64;52.06;101919.00;7392939;19;20403;-47
2022/03/11 10:04:48;;;;;;;17.87;6.50;;;;;;;3.53;49.19;101896.72;7390232;19;20504;-50
2022/03/11 10:07:38;;;;;;;39.17;14.10;;;;;;;3.58;50.91;101904.81;7389966;19;20396;-50
2022/03/11 10:10:16;;;;;;;39.43;17.13;;;;;;;3.56;48.48;101909.78;7394601;19;20394;-51
2022/03/11 10:13:09;;;;;;;20.97;9.90;;;;;;;3.69;48.15;101908.31;7390705;19;20410;-54
2022/03/11 10:15:40;;;;;;;24.23;10.03;;;;;;;3.71;47.49;101907.69;7393213;19;20443;-48
2022/03/11 10:18:16;;;;;;;14.90;6.73;;;;;;;3.81;47.36;101911.94;7390014;19;20989;-49
2022/03/11 10:20:46;;;;;;;31.80;12.60;;;;;;;3.94;49.79;101903.69;7393716;19;20413;-52
2022/03/11 10:23:16;;;;;;;12.17;5.70;;;;;;;3.81;44.56;101909.41;7390316;19;20407;-50
2022/03/11 10:25:53;;;;;;;14.30;5.40;;;;;;;3.91;44.83;101906.00;7394702;19;20414;-52
2022/03/11 10:28:29;;;;;;;14.83;6.53;;;;;;;3.87;44.84;101906.47;7391791;19;20494;-49
2022/03/11 10:31:10;;;;;;;55.57;21.10;;;;;;;3.95;44.57;101907.16;7394131;19;20371;-53
2022/03/11 10:33:40;;;;;;;24.80;9.73;;;;;;;4.06;44.45;101898.75;7389094;19;20415;-51
2022/03/11 10:36:14;;;;;;;38.30;13.53;;;;;;;4.24;44.75;101893.41;7393528;19;20455;-49
2022/03/11 10:38:46;;;;;;;19.00;7.80;;;;;;;4.40;43.72;101891.44;7386800;19;20474;-54
2022/03/11 10:41:18;;;;;;;15.80;7.03;;;;;;;4.26;42.46;101892.78;7396550;19;20395;-50
2022/03/11 10:44:09;;;;;;;40.87;15.10;;;;;;;4.37;42.62;101883.50;7387027;19;20398;-53
2022/03/11 10:46:38;;;;;;;40.13;11.37;;;;;;;4.46;42.89;101889.38;7393815;19;20914;-53
2022/03/11 10:49:08;;;;;;;33.97;11.40;;;;;;;4.49;42.76;101888.75;7388203;19;20998;-52
2022/03/11 10:51:39;;;;;;;17.90;6.27;;;;;;;4.56;41.01;101880.84;7393412;19;20395;-49
2022/03/11 10:54:09;;;;;;;20.20;6.63;;;;;;;4.66;40.64;101884.19;7385934;19;20451;-47
2022/03/11 10:56:41;;;;;;;20.43;8.17;;;;;;;4.78;40.40;101881.75;7393235;19;20724;-47
2022/03/11 10:59:16;;;;;;;17.30;5.40;;;;;;;4.79;40.20;101868.19;7389962;19;20449;-51
2022/03/11 11:01:46;;;;;;;13.30;6.90;;;;;;;4.81;40.50;101871.75;7396062;19;20399;-49
2022/03/11 11:04:17;;;;;;;15.83;6.23;;;;;;;4.82;39.62;101863.34;7388176;19;20449;-48
2022/03/11 11:06:47;;;;;;;119.33;41.07;;;;;;;4.96;39.84;101860.25;7392391;19;20375;-51
2022/03/11 11:09:21;;;;;;;21.97;7.20;;;;;;;5.02;39.01;101853.84;7392080;19;20862;-51
2022/03/11 11:11:52;;;;;;;13.17;6.50;;;;;;;5.05;39.52;101851.53;7392542;19;20401;-49
2022/03/11 11:14:24;;;;;;;15.30;7.17;;;;;;;5.20;39.45;101850.25;7390476;19;20447;-48
2022/03/11 11:16:58;;;;;;;15.97;6.17;;;;;;;5.16;38.21;101844.72;7392586;19;20396;-46
2022/03/11 11:19:28;;;;;;;15.90;5.97;;;;;;;5.34;38.94;101855.56;7388267;19;20764;-50
2022/03/11 11:21:58;;;;;;;12.10;5.70;;;;;;;5.31;38.14;101850.19;7390990;19;20918;-48
2022/03/11 11:24:27;;;;;;;15.40;6.63;;;;;;;5.39;37.73;101833.81;7388711;19;20403;-48
2022/03/11 11:26:58;;;;;;;126.60;41.23;;;;;;;5.62;41.78;101840.75;7400724;19;20391;-47
2022/03/11 11:29:33;;;;;;;22.03;9.50;;;;;;;5.80;38.95;101842.97;7395786;19;20851;-48
2022/03/11 11:32:03;;;;;;;22.00;8.63;;;;;;;5.79;38.79;101836.97;7399775;19;20905;-48
2022/03/11 11:34:35;;;;;;;13.27;6.93;;;;;;;5.84;38.30;101829.63;7395472;19;20447;-46